Time;durP1;ratioP1;P1;durP2;ratioP2;P2;SDS_P1;SDS_P2;PMS_P1;PMS_P2;Temp;Humidity;BMP_temperature;BMP_pressure;BME280_temperature;BME280_humidity;BME280_pressure;Samples;Min_cycle;Max_cycle;Signal;HPM_P1;HPM_P2
2022/09/17 00:00:13;;;;;;;2.13;1.70;;;;;;;;;;5034698;28;24506;-47
2022/09/17 00:02:38;;;;;;;3.60;1.80;;;;;;;;;;5037163;28;24434;-47
2022/09/17 00:05:04;;;;;;;2.28;2.08;;;;;;;;;;5033113;28;24420;-48
2022/09/17 00:07:29;;;;;;;2.13;1.88;;;;;;;;;;5029358;28;25395;-47
2022/09/17 00:09:55;;;;;;;2.15;1.70;;;;;;;;;;5034178;28;25151;-47
2022/09/17 00:12:20;;;;;;;1.95;1.60;;;;;;;;;;5027069;28;24395;-46
2022/09/17 00:14:45;;;;;;;2.88;1.90;;;;;;;;;;5028805;28;24427;-47
2022/09/17 00:17:10;;;;;;;2.50;1.80;;;;;;;;;;5036157;28;24423;-47
2022/09/17 00:19:35;;;;;;;3.90;2.30;;;;;;;;;;5034868;28;24434;-47
2022/09/17 00:22:00;;;;;;;2.03;1.70;;;;;;;;;;5035954;28;24423;-48
2022/09/17 00:24:26;;;;;;;1.90;1.80;;;;;;;;;;5031370;28;24977;-46
2022/09/17 00:26:52;;;;;;;1.90;1.80;;;;;;;;;;5045516;28;24562;-47
2022/09/17 00:29:17;;;;;;;1.70;1.60;;;;;;;;;;5040246;28;24766;-47
2022/09/17 00:31:42;;;;;;;1.90;1.70;;;;;;;;;;5031357;28;24431;-47
2022/09/17 00:34:08;;;;;;;2.30;1.95;;;;;;;;;;5027980;28;25000;-47
2022/09/17 00:36:34;;;;;;;3.23;1.90;;;;;;;;;;5032329;28;24450;-47
2022/09/17 00:39:02;;;;;;;2.25;1.80;;;;;;;;;;5044978;28;21670;-47
2022/09/17 00:41:29;;;;;;;3.15;1.90;;;;;;;;;;5044521;28;24427;-48
2022/09/17 00:44:01;;;;;;;2.23;1.70;;;;;;;;;;5036650;28;24446;-47
2022/09/17 00:46:52;;;;;;;2.80;1.90;;;;;;;;;;5031532;28;24452;-48
2022/09/17 00:49:19;;;;;;;4.50;2.10;;;;;;;;;;5035181;28;24523;-47
2022/09/17 00:52:04;;;;;;;3.03;1.80;;;;;;;;;;5027674;28;24961;-46
2022/09/17 00:54:31;;;;;;;2.20;1.60;;;;;;;;;;5028274;28;24454;-46
2022/09/17 00:56:56;;;;;;;2.00;1.70;;;;;;;;;;5026724;28;24427;-47
2022/09/17 00:59:22;;;;;;;2.20;1.50;;;;;;;;;;5042271;28;24424;-49
2022/09/17 01:01:47;;;;;;;1.88;1.60;;;;;;;;;;5032616;28;24426;-47
2022/09/17 01:04:16;;;;;;;2.63;1.30;;;;;;;;;;5045639;28;24427;-47
2022/09/17 01:06:54;;;;;;;1.70;1.47;;;;;;;;;;5032184;28;24424;-47
2022/09/17 01:09:23;;;;;;;3.50;1.50;;;;;;;;;;5037334;28;24861;-47
2022/09/17 01:11:53;;;;;;;2.35;1.60;;;;;;;;;;5034970;28;24458;-48
2022/09/17 01:14:27;;;;;;;2.45;1.70;;;;;;;;;;5043407;28;24390;-47
2022/09/17 01:17:04;;;;;;;3.38;1.60;;;;;;;;;;5044408;28;24455;-47
2022/09/17 01:19:53;;;;;;;1.45;1.20;;;;;;;;;;5046871;28;24516;-47
2022/09/17 01:22:30;;;;;;;2.67;1.63;;;;;;;;;;5039429;28;24830;-47
2022/09/17 01:25:07;;;;;;;1.85;1.40;;;;;;;;;;5037130;28;24466;-47
2022/09/17 01:27:38;;;;;;;3.08;1.58;;;;;;;;;;5040572;28;24439;-47
2022/09/17 01:30:21;;;;;;;2.17;1.50;;;;;;;;;;5037172;28;24476;-46
2022/09/17 01:32:51;;;;;;;3.40;1.57;;;;;;;;;;5045372;28;24484;-47
2022/09/17 01:35:25;;;;;;;3.10;1.50;;;;;;;;;;5048111;28;24854;-47
2022/09/17 01:38:01;;;;;;;1.85;1.40;;;;;;;;;;5047568;28;25231;-47
2022/09/17 01:40:31;;;;;;;3.03;1.60;;;;;;;;;;5036980;28;25093;-47
2022/09/17 01:43:00;;;;;;;2.63;1.50;;;;;;;;;;5044466;28;24770;-48
2022/09/17 01:45:40;;;;;;;3.13;1.40;;;;;;;;;;5032869;28;24504;-47
2022/09/17 01:48:14;;;;;;;2.93;1.50;;;;;;;;;;5039071;28;24455;-47
2022/09/17 01:50:44;;;;;;;3.10;1.48;;;;;;;;;;5042998;28;24506;-47
2022/09/17 01:53:10;;;;;;;1.95;1.30;;;;;;;;;;5045767;28;24427;-47
2022/09/17 01:55:37;;;;;;;2.58;1.60;;;;;;;;;;5042183;28;24411;-47
2022/09/17 01:58:13;;;;;;;2.80;1.50;;;;;;;;;;5032471;28;25063;-47
2022/09/17 02:00:41;;;;;;;2.80;1.70;;;;;;;;;;5045593;28;24952;-47
2022/09/17 02:03:13;;;;;;;1.90;1.60;;;;;;;;;;5038382;28;24454;-46
2022/09/17 02:05:58;;;;;;;2.35;1.55;;;;;;;;;;5039930;28;24429;-46
2022/09/17 02:08:25;;;;;;;3.00;1.80;;;;;;;;;;5042079;28;24827;-47
2022/09/17 02:11:01;;;;;;;1.50;1.40;;;;;;;;;;5041489;28;24442;-47
2022/09/17 02:13:29;;;;;;;2.83;1.60;;;;;;;;;;5032131;28;24501;-47
2022/09/17 02:15:56;;;;;;;3.70;1.60;;;;;;;;;;5035967;28;25008;-47
2022/09/17 02:18:40;;;;;;;2.67;1.73;;;;;;;;;;5044508;28;24526;-47
2022/09/17 02:21:24;;;;;;;2.30;1.70;;;;;;;;;;5027131;28;24507;-47
2022/09/17 02:23:53;;;;;;;2.53;2.10;;;;;;;;;;5041357;28;24419;-47
2022/09/17 02:26:19;;;;;;;2.97;1.50;;;;;;;;;;5033165;28;24419;-47
2022/09/17 02:28:49;;;;;;;2.40;1.40;;;;;;;;;;5043259;28;24678;-47
2022/09/17 02:31:14;;;;;;;2.97;1.40;;;;;;;;;;5044550;28;24437;-46
2022/09/17 02:33:40;;;;;;;4.63;1.80;;;;;;;;;;5040216;28;24415;-46
2022/09/17 02:36:06;;;;;;;2.00;1.60;;;;;;;;;;5042191;28;24534;-46
2022/09/17 02:38:31;;;;;;;2.30;1.40;;;;;;;;;;5039241;28;24422;-47
2022/09/17 02:41:13;;;;;;;1.70;1.50;;;;;;;;;;5044097;28;24462;-48
2022/09/17 02:43:49;;;;;;;1.60;1.50;;;;;;;;;;5044137;28;24423;-47
2022/09/17 02:46:33;;;;;;;2.92;1.67;;;;;;;;;;5037368;28;25197;-47
2022/09/17 02:49:11;;;;;;;2.30;1.37;;;;;;;;;;5035207;28;24427;-47
2022/09/17 02:51:46;;;;;;;2.55;1.60;;;;;;;;;;5040530;28;24437;-47
2022/09/17 02:54:16;;;;;;;2.70;1.50;;;;;;;;;;5038819;28;24782;-47
2022/09/17 02:56:42;;;;;;;3.22;1.40;;;;;;;;;;5036878;28;24427;-46
2022/09/17 02:59:26;;;;;;;3.20;1.70;;;;;;;;;;5042447;28;24461;-47
2022/09/17 03:01:55;;;;;;;3.10;1.65;;;;;;;;;;5043920;28;24454;-47
2022/09/17 03:04:22;;;;;;;3.13;1.55;;;;;;;;;;5041357;28;24504;-47
2022/09/17 03:06:47;;;;;;;2.80;1.33;;;;;;;;;;5037960;28;24458;-47
2022/09/17 03:09:13;;;;;;;4.33;1.67;;;;;;;;;;5037973;28;24454;-46
2022/09/17 03:11:38;;;;;;;1.95;1.40;;;;;;;;;;5027587;28;24511;-46
2022/09/17 03:14:04;;;;;;;3.10;1.40;;;;;;;;;;5030095;28;24889;-46
2022/09/17 03:16:29;;;;;;;2.60;1.60;;;;;;;;;;5030025;28;24422;-47
2022/09/17 03:18:54;;;;;;;1.75;1.30;;;;;;;;;;5040397;28;24420;-47
2022/09/17 03:21:19;;;;;;;2.53;1.58;;;;;;;;;;5039487;28;24430;-47
2022/09/17 03:23:45;;;;;;;2.25;1.60;;;;;;;;;;5037455;28;25265;-47
2022/09/17 03:26:10;;;;;;;1.95;1.50;;;;;;;;;;5046698;28;24415;-47
2022/09/17 03:28:35;;;;;;;2.40;1.58;;;;;;;;;;5039940;28;24958;-47
2022/09/17 03:31:00;;;;;;;1.60;1.40;;;;;;;;;;5033041;28;24529;-47
2022/09/17 03:33:25;;;;;;;2.80;1.67;;;;;;;;;;5043322;28;24984;-48
2022/09/17 03:35:50;;;;;;;3.30;1.70;;;;;;;;;;5027793;28;25024;-47
2022/09/17 03:38:16;;;;;;;2.30;1.52;;;;;;;;;;5034593;28;24406;-48
2022/09/17 03:40:41;;;;;;;2.67;1.50;;;;;;;;;;5042747;28;24420;-47
2022/09/17 03:43:07;;;;;;;2.07;1.20;;;;;;;;;;5027443;28;24411;-47
2022/09/17 03:45:32;;;;;;;1.58;1.45;;;;;;;;;;5027816;28;24396;-48
2022/09/17 03:47:57;;;;;;;3.00;1.50;;;;;;;;;;5027816;28;24451;-48
2022/09/17 03:50:22;;;;;;;2.88;1.60;;;;;;;;;;5027782;28;24408;-47
2022/09/17 03:52:47;;;;;;;3.33;1.60;;;;;;;;;;5040942;28;24984;-47
2022/09/17 03:55:12;;;;;;;2.20;1.52;;;;;;;;;;5047370;28;24403;-47
2022/09/17 03:57:37;;;;;;;1.90;1.67;;;;;;;;;;5045775;28;24457;-47
2022/09/17 04:00:04;;;;;;;2.10;1.65;;;;;;;;;;5047348;28;24414;-47
2022/09/17 04:02:29;;;;;;;3.10;1.60;;;;;;;;;;5046450;28;24448;-46
2022/09/17 04:04:54;;;;;;;2.10;1.25;;;;;;;;;;5047111;28;24422;-47
2022/09/17 04:07:19;;;;;;;1.70;1.30;;;;;;;;;;5047208;28;25031;-47
2022/09/17 04:09:44;;;;;;;1.90;1.50;;;;;;;;;;5047526;28;24407;-48
2022/09/17 04:12:09;;;;;;;3.63;1.70;;;;;;;;;;5039534;28;24488;-47
2022/09/17 04:14:35;;;;;;;2.92;1.58;;;;;;;;;;5039121;28;24442;-47
2022/09/17 04:17:00;;;;;;;3.30;1.50;;;;;;;;;;5032270;28;24434;-47
2022/09/17 04:19:25;;;;;;;3.22;1.80;;;;;;;;;;5043370;28;24462;-48
2022/09/17 04:21:50;;;;;;;1.57;1.40;;;;;;;;;;5030134;28;24423;-47
2022/09/17 04:24:15;;;;;;;1.60;1.50;;;;;;;;;;5034748;28;24493;-46
2022/09/17 04:26:40;;;;;;;3.60;2.00;;;;;;;;;;5042769;28;24427;-47
2022/09/17 04:29:06;;;;;;;2.30;1.67;;;;;;;;;;5041747;28;24415;-47
2022/09/17 04:31:31;;;;;;;2.80;1.60;;;;;;;;;;5041488;28;24462;-47
2022/09/17 04:33:56;;;;;;;1.77;1.67;;;;;;;;;;5037289;28;24432;-47
2022/09/17 04:36:21;;;;;;;2.55;1.40;;;;;;;;;;5034130;28;24439;-47
2022/09/17 04:38:47;;;;;;;3.35;1.60;;;;;;;;;;5043024;28;24548;-47
2022/09/17 04:41:12;;;;;;;2.30;1.80;;;;;;;;;;5040339;28;24445;-47
2022/09/17 04:43:37;;;;;;;2.30;1.50;;;;;;;;;;5027798;28;24430;-48
2022/09/17 04:46:02;;;;;;;2.60;1.52;;;;;;;;;;5037652;28;24494;-47
2022/09/17 04:48:27;;;;;;;2.03;1.70;;;;;;;;;;5029761;28;24996;-47
2022/09/17 04:50:52;;;;;;;2.20;1.60;;;;;;;;;;5028282;28;24423;-47
2022/09/17 04:53:18;;;;;;;2.08;1.70;;;;;;;;;;5042846;28;24426;-47
2022/09/17 04:55:43;;;;;;;2.30;1.70;;;;;;;;;;5037677;28;24503;-48
2022/09/17 04:58:09;;;;;;;2.57;1.77;;;;;;;;;;5032056;28;24813;-47
2022/09/17 05:00:34;;;;;;;1.42;1.33;;;;;;;;;;5032300;28;24854;-47
2022/09/17 05:02:59;;;;;;;1.70;1.60;;;;;;;;;;5036653;28;24606;-47
2022/09/17 05:05:24;;;;;;;2.22;1.98;;;;;;;;;;5045975;28;24419;-47
2022/09/17 05:07:50;;;;;;;1.83;1.70;;;;;;;;;;5039728;28;24518;-47
2022/09/17 05:10:16;;;;;;;1.80;1.70;;;;;;;;;;5045973;28;24484;-47
2022/09/17 05:12:46;;;;;;;1.70;1.60;;;;;;;;;;5038449;28;24463;-47
2022/09/17 05:15:11;;;;;;;2.20;1.80;;;;;;;;;;5049379;28;24390;-47
2022/09/17 05:17:36;;;;;;;2.10;2.00;;;;;;;;;;5043179;28;24427;-48
2022/09/17 05:20:01;;;;;;;2.30;2.10;;;;;;;;;;5036480;28;24450;-47
2022/09/17 05:22:27;;;;;;;2.00;1.80;;;;;;;;;;5046215;28;24605;-46
2022/09/17 05:24:52;;;;;;;2.60;2.40;;;;;;;;;;5031668;28;24502;-46
2022/09/17 05:27:17;;;;;;;3.40;2.47;;;;;;;;;;5042779;28;24524;-46
2022/09/17 05:29:44;;;;;;;2.30;2.10;;;;;;;;;;5037631;28;25074;-46
2022/09/17 05:32:09;;;;;;;2.00;1.90;;;;;;;;;;5044094;28;24423;-47
2022/09/17 05:34:34;;;;;;;2.45;2.25;;;;;;;;;;5043927;28;24488;-46
2022/09/17 05:36:59;;;;;;;2.30;2.10;;;;;;;;;;5032364;28;24420;-46
2022/09/17 05:39:24;;;;;;;2.10;1.90;;;;;;;;;;5038812;28;24415;-47
2022/09/17 05:41:53;;;;;;;2.10;2.00;;;;;;;;;;5046614;28;24510;-48
2022/09/17 05:44:18;;;;;;;2.20;2.00;;;;;;;;;;5041648;28;24420;-47
2022/09/17 05:46:44;;;;;;;2.30;2.10;;;;;;;;;;5048534;28;24476;-47
2022/09/17 05:49:09;;;;;;;1.90;1.80;;;;;;;;;;5039284;28;24446;-46
2022/09/17 05:51:34;;;;;;;1.90;1.80;;;;;;;;;;5045779;28;24546;-47
2022/09/17 05:53:59;;;;;;;1.83;1.73;;;;;;;;;;5042594;28;24804;-47
2022/09/17 05:56:24;;;;;;;1.80;1.70;;;;;;;;;;5033108;28;24482;-47
2022/09/17 05:58:54;;;;;;;1.60;1.50;;;;;;;;;;5039891;28;24451;-46
2022/09/17 06:01:19;;;;;;;1.70;1.60;;;;;;;;;;5045072;28;24469;-46
2022/09/17 06:03:44;;;;;;;1.50;1.40;;;;;;;;;;5034127;28;25338;-46
2022/09/17 06:06:09;;;;;;;1.55;1.45;;;;;;;;;;5036133;28;24426;-46
2022/09/17 06:08:35;;;;;;;1.53;1.43;;;;;;;;;;5032021;28;24431;-46
2022/09/17 06:11:07;;;;;;;2.08;1.80;;;;;;;;;;5042460;28;24431;-46
2022/09/17 06:13:33;;;;;;;1.90;1.70;;;;;;;;;;5037941;28;25015;-46
2022/09/17 06:15:58;;;;;;;1.60;1.52;;;;;;;;;;5036863;28;24428;-46
2022/09/17 06:18:23;;;;;;;1.40;1.30;;;;;;;;;;5034194;28;24412;-46
2022/09/17 06:20:55;;;;;;;1.70;1.30;;;;;;;;;;5030985;28;25023;-46
2022/09/17 06:23:21;;;;;;;1.40;1.30;;;;;;;;;;5036634;28;24519;-46
2022/09/17 06:25:50;;;;;;;1.70;1.60;;;;;;;;;;5031322;28;24578;-46
2022/09/17 06:28:16;;;;;;;1.60;1.50;;;;;;;;;;5034643;28;24739;-46
2022/09/17 06:30:41;;;;;;;1.20;1.20;;;;;;;;;;5039315;28;25031;-47
2022/09/17 06:33:06;;;;;;;1.30;1.20;;;;;;;;;;5041793;28;24466;-45
2022/09/17 06:35:31;;;;;;;1.33;1.20;;;;;;;;;;5037831;28;24455;-46
2022/09/17 06:37:56;;;;;;;1.30;1.20;;;;;;;;;;5036186;28;25115;-47
2022/09/17 06:40:22;;;;;;;0.90;0.90;;;;;;;;;;5031492;28;24514;-46
2022/09/17 06:42:47;;;;;;;0.95;0.95;;;;;;;;;;5043932;28;25527;-47
2022/09/17 06:45:12;;;;;;;1.10;1.00;;;;;;;;;;5036033;28;24460;-46
2022/09/17 06:47:37;;;;;;;1.00;1.00;;;;;;;;;;5034080;28;24432;-47
2022/09/17 06:50:03;;;;;;;1.00;1.00;;;;;;;;;;5042397;28;24561;-47
2022/09/17 06:52:28;;;;;;;1.00;1.00;;;;;;;;;;5033168;28;24427;-47
2022/09/17 06:54:53;;;;;;;0.90;0.90;;;;;;;;;;5036300;28;24954;-47
2022/09/17 06:57:18;;;;;;;0.80;0.80;;;;;;;;;;5037064;28;24977;-46
2022/09/17 06:59:43;;;;;;;0.80;0.80;;;;;;;;;;5031760;28;24407;-47
2022/09/17 07:02:09;;;;;;;0.80;0.80;;;;;;;;;;5044833;28;24426;-47
2022/09/17 07:04:34;;;;;;;0.70;0.70;;;;;;;;;;5035213;28;24480;-47
2022/09/17 07:06:59;;;;;;;1.10;1.00;;;;;;;;;;5055918;28;24431;-47
2022/09/17 07:09:24;;;;;;;0.80;0.80;;;;;;;;;;5041839;28;24763;-47
2022/09/17 07:11:49;;;;;;;0.80;0.80;;;;;;;;;;5030669;28;24432;-47
2022/09/17 07:14:15;;;;;;;0.80;0.80;;;;;;;;;;5037964;28;24451;-47
2022/09/17 07:16:40;;;;;;;0.90;0.90;;;;;;;;;;5040679;28;24464;-47
2022/09/17 07:19:05;;;;;;;0.85;0.85;;;;;;;;;;5031869;28;24625;-47
2022/09/17 07:21:31;;;;;;;0.80;0.80;;;;;;;;;;5040936;28;24450;-51
2022/09/17 07:23:56;;;;;;;1.00;1.00;;;;;;;;;;5036466;28;24431;-47
2022/09/17 07:26:21;;;;;;;0.80;0.80;;;;;;;;;;5029975;28;24829;-47
2022/09/17 07:28:47;;;;;;;0.90;0.90;;;;;;;;;;5042334;28;24969;-45
2022/09/17 07:31:12;;;;;;;1.00;1.00;;;;;;;;;;5035061;28;24423;-46
2022/09/17 07:33:37;;;;;;;1.70;1.60;;;;;;;;;;5044451;28;24485;-45
2022/09/17 07:36:04;;;;;;;4.80;2.58;;;;;;;;;;5028395;28;25377;-46
2022/09/17 07:38:30;;;;;;;2.60;2.40;;;;;;;;;;5040415;28;24412;-45
2022/09/17 07:40:59;;;;;;;3.23;3.03;;;;;;;;;;5028995;28;24817;-46
2022/09/17 07:43:25;;;;;;;3.83;3.40;;;;;;;;;;5039966;28;24973;-47
2022/09/17 07:45:51;;;;;;;4.30;3.60;;;;;;;;;;5043164;28;24538;-47
2022/09/17 07:48:16;;;;;;;3.92;3.50;;;;;;;;;;5040073;28;24446;-46
2022/09/17 07:50:41;;;;;;;4.20;3.67;;;;;;;;;;5037997;28;24457;-45
2022/09/17 07:53:07;;;;;;;4.70;4.30;;;;;;;;;;5034234;28;24503;-46
2022/09/17 07:55:32;;;;;;;5.70;4.43;;;;;;;;;;5029063;28;24494;-47
2022/09/17 07:57:57;;;;;;;5.65;4.10;;;;;;;;;;5041652;28;24481;-47
2022/09/17 08:00:22;;;;;;;4.80;4.40;;;;;;;;;;5030427;28;24434;-46
2022/09/17 08:02:54;;;;;;;4.63;4.00;;;;;;;;;;5039237;28;24853;-47
2022/09/17 08:05:19;;;;;;;4.95;4.45;;;;;;;;;;5035583;28;24476;-47
2022/09/17 08:07:48;;;;;;;4.95;4.45;;;;;;;;;;5039778;28;24884;-47
2022/09/17 08:10:13;;;;;;;5.05;4.63;;;;;;;;;;5034601;28;24516;-47
2022/09/17 08:12:38;;;;;;;5.25;4.53;;;;;;;;;;5030515;28;24539;-47
2022/09/17 08:15:04;;;;;;;7.30;5.20;;;;;;;;;;5037036;28;24439;-46
2022/09/17 08:17:29;;;;;;;5.70;5.10;;;;;;;;;;5031378;28;24420;-48
2022/09/17 08:19:54;;;;;;;7.80;5.63;;;;;;;;;;5030809;28;24427;-46
2022/09/17 08:22:19;;;;;;;6.35;4.72;;;;;;;;;;5039363;28;24526;-46
2022/09/17 08:24:44;;;;;;;5.63;4.78;;;;;;;;;;5049072;28;24529;-47
2022/09/17 08:27:09;;;;;;;6.13;4.50;;;;;;;;;;5044698;28;24534;-47
2022/09/17 08:29:35;;;;;;;5.18;4.32;;;;;;;;;;5044227;28;24542;-46
2022/09/17 08:32:00;;;;;;;6.38;4.22;;;;;;;;;;5060035;28;24483;-45
2022/09/17 08:34:25;;;;;;;6.40;4.00;;;;;;;;;;5057274;28;24786;-45
2022/09/17 08:36:50;;;;;;;5.50;4.13;;;;;;;;;;5037620;28;24509;-46
2022/09/17 08:39:16;;;;;;;5.50;4.50;;;;;;;;;;5031440;28;24442;-46
2022/09/17 08:41:56;;;;;;;5.47;3.60;;;;;;;;;;5040978;28;24419;-46
2022/09/17 08:44:38;;;;;;;5.55;4.10;;;;;;;;;;5045160;28;25070;-46
2022/09/17 08:47:10;;;;;;;6.32;4.03;;;;;;;;;;5042995;28;24446;-45
2022/09/17 08:49:40;;;;;;;5.50;3.60;;;;;;;;;;5039323;28;24418;-46
2022/09/17 08:52:05;;;;;;;6.03;3.90;;;;;;;;;;5039549;28;24447;-46
2022/09/17 08:54:30;;;;;;;5.50;3.50;;;;;;;;;;5045874;28;24490;-46
2022/09/17 08:57:04;;;;;;;6.85;4.03;;;;;;;;;;5045320;28;24446;-46
2022/09/17 08:59:48;;;;;;;5.35;3.63;;;;;;;;;;5046067;28;24411;-46
2022/09/17 09:02:27;;;;;;;4.20;3.60;;;;;;;;;;5036658;28;24534;-47
2022/09/17 09:05:08;;;;;;;6.90;4.00;;;;;;;;;;5049508;28;24425;-46
2022/09/17 09:07:41;;;;;;;4.80;3.50;;;;;;;;;;5053419;28;24427;-46
2022/09/17 09:10:15;;;;;;;6.13;3.90;;;;;;;;;;5051067;28;24490;-46
2022/09/17 09:12:41;;;;;;;5.87;3.60;;;;;;;;;;5045558;28;24395;-46
2022/09/17 09:15:17;;;;;;;3.97;3.30;;;;;;;;;;5054924;28;24475;-47
2022/09/17 09:17:45;;;;;;;5.82;3.30;;;;;;;;;;5049022;28;24511;-46
2022/09/17 09:20:15;;;;;;;4.63;3.22;;;;;;;;;;5045997;28;24402;-46
2022/09/17 09:22:47;;;;;;;6.60;3.10;;;;;;;;;;5029258;28;24409;-45
2022/09/17 09:25:13;;;;;;;3.72;2.80;;;;;;;;;;5031455;28;24411;-46
2022/09/17 09:27:44;;;;;;;4.85;2.60;;;;;;;;;;5044734;28;24458;-44
2022/09/17 09:30:10;;;;;;;4.97;2.88;;;;;;;;;;5032437;28;24535;-44
2022/09/17 09:32:50;;;;;;;5.55;2.45;;;;;;;;;;5031642;28;24816;-45
2022/09/17 09:35:20;;;;;;;4.13;2.70;;;;;;;;;;5039196;28;24973;-46
2022/09/17 09:37:52;;;;;;;3.35;2.30;;;;;;;;;;5036585;28;24986;-45
2022/09/17 09:40:24;;;;;;;4.10;2.50;;;;;;;;;;5030673;28;24453;-46
2022/09/17 09:42:52;;;;;;;3.03;2.08;;;;;;;;;;5039822;28;24522;-46
2022/09/17 09:45:25;;;;;;;3.90;2.00;;;;;;;;;;5027941;28;24510;-46
2022/09/17 09:48:08;;;;;;;3.83;2.17;;;;;;;;;;5029461;28;24462;-46
2022/09/17 09:50:45;;;;;;;4.45;2.40;;;;;;;;;;5029696;28;24420;-46
2022/09/17 09:53:24;;;;;;;4.20;2.50;;;;;;;;;;5042164;28;24420;-46
2022/09/17 09:55:59;;;;;;;4.20;2.17;;;;;;;;;;5041976;28;24839;-46
2022/09/17 09:58:32;;;;;;;3.60;1.90;;;;;;;;;;5037188;28;24455;-46
2022/09/17 10:00:58;;;;;;;3.25;1.88;;;;;;;;;;5047950;28;24414;-47
2022/09/17 10:03:26;;;;;;;4.00;2.00;;;;;;;;;;5048340;28;24419;-46
2022/09/17 10:05:56;;;;;;;3.22;1.80;;;;;;;;;;5034123;28;24431;-46
2022/09/17 10:08:21;;;;;;;5.18;2.00;;;;;;;;;;5044657;28;24534;-46
2022/09/17 10:11:05;;;;;;;3.20;1.93;;;;;;;;;;5048661;28;24487;-46
2022/09/17 10:13:35;;;;;;;3.60;1.77;;;;;;;;;;5044984;28;24415;-47
2022/09/17 10:16:15;;;;;;;4.53;2.20;;;;;;;;;;5036577;28;24419;-46
2022/09/17 10:18:40;;;;;;;4.82;2.80;;;;;;;;;;5038215;28;24427;-47
2022/09/17 10:21:17;;;;;;;3.95;2.15;;;;;;;;;;5038254;28;24527;-47
2022/09/17 10:23:42;;;;;;;4.00;1.98;;;;;;;;;;5046503;28;24430;-46
2022/09/17 10:26:18;;;;;;;2.80;1.50;;;;;;;;;;5046343;28;24415;-49
2022/09/17 10:28:47;;;;;;;2.80;1.30;;;;;;;;;;5026590;28;24930;-48
2022/09/17 10:31:12;;;;;;;2.83;1.67;;;;;;;;;;5037396;28;24771;-47
2022/09/17 10:33:50;;;;;;;2.80;1.30;;;;;;;;;;5044186;28;25328;-47
2022/09/17 10:36:16;;;;;;;3.58;1.60;;;;;;;;;;5049212;28;24546;-46
2022/09/17 10:38:44;;;;;;;3.17;1.67;;;;;;;;;;5050627;28;25134;-46
2022/09/17 10:41:12;;;;;;;3.37;1.50;;;;;;;;;;5041726;28;24787;-47
2022/09/17 10:43:38;;;;;;;2.20;1.50;;;;;;;;;;5041063;28;24454;-46
2022/09/17 10:46:03;;;;;;;2.87;1.37;;;;;;;;;;5052889;28;24820;-47
2022/09/17 10:48:33;;;;;;;2.80;1.47;;;;;;;;;;5053866;28;24462;-47
2022/09/17 10:50:58;;;;;;;2.70;1.35;;;;;;;;;;5045605;28;24988;-46
2022/09/17 10:53:25;;;;;;;3.40;2.10;;;;;;;;;;5048820;28;24427;-47
2022/09/17 10:56:05;;;;;;;3.88;2.00;;;;;;;;;;5056411;28;24422;-46
2022/09/17 10:58:42;;;;;;;2.30;1.40;;;;;;;;;;5045312;28;24560;-47
2022/09/17 11:01:14;;;;;;;3.15;1.70;;;;;;;;;;5035048;28;25065;-47
2022/09/17 11:03:39;;;;;;;2.20;1.40;;;;;;;;;;5038373;28;24488;-47
2022/09/17 11:06:24;;;;;;;3.55;1.90;;;;;;;;;;5027769;28;24475;-46
2022/09/17 11:08:59;;;;;;;2.53;1.60;;;;;;;;;;5052838;28;24460;-46
2022/09/17 11:11:46;;;;;;;3.35;1.40;;;;;;;;;;5036276;28;25164;-47
2022/09/17 11:14:34;;;;;;;2.50;1.60;;;;;;;;;;5033259;28;24799;-46
2022/09/17 11:17:19;;;;;;;2.75;1.55;;;;;;;;;;5031510;28;24511;-46
2022/09/17 11:19:50;;;;;;;3.40;1.50;;;;;;;;;;5041929;28;24447;-46
2022/09/17 11:22:22;;;;;;;4.40;1.85;;;;;;;;;;5037521;28;24426;-47
2022/09/17 11:25:13;;;;;;;2.88;1.45;;;;;;;;;;5040223;28;24981;-46
2022/09/17 11:27:43;;;;;;;3.40;1.70;;;;;;;;;;5032377;28;24457;-47
2022/09/17 11:30:22;;;;;;;2.53;1.70;;;;;;;;;;5037447;28;24526;-47
2022/09/17 11:33:00;;;;;;;2.97;1.60;;;;;;;;;;5041311;28;24416;-46
2022/09/17 11:35:29;;;;;;;2.50;1.40;;;;;;;;;;5036048;28;24450;-46
2022/09/17 11:38:05;;;;;;;4.30;1.98;;;;;;;;;;5040883;28;24423;-46
2022/09/17 11:40:36;;;;;;;2.90;1.60;;;;;;;;;;5038846;28;24423;-46
2022/09/17 11:43:06;;;;;;;4.25;1.80;;;;;;;;;;5029221;28;24439;-46
2022/09/17 11:45:35;;;;;;;5.10;2.40;;;;;;;;;;5025755;28;24472;-46
2022/09/17 11:48:00;;;;;;;4.50;1.77;;;;;;;;;;5039991;28;24798;-45
2022/09/17 11:50:31;;;;;;;4.90;1.87;;;;;;;;;;5042133;28;24445;-48
2022/09/17 11:53:10;;;;;;;2.70;1.48;;;;;;;;;;5036215;28;24419;-45
2022/09/17 11:55:47;;;;;;;1.75;1.10;;;;;;;;;;5054025;28;24767;-46
2022/09/17 11:58:31;;;;;;;2.08;1.27;;;;;;;;;;5038160;28;24438;-44
2022/09/17 12:01:16;;;;;;;3.15;1.60;;;;;;;;;;5048459;28;24789;-44
2022/09/17 12:03:46;;;;;;;2.00;1.80;;;;;;;;;;5028166;28;24420;-45
2022/09/17 12:06:17;;;;;;;5.57;2.10;;;;;;;;;;5029091;28;24431;-47
2022/09/17 12:08:45;;;;;;;2.00;1.40;;;;;;;;;;5048769;28;24465;-47
2022/09/17 12:11:13;;;;;;;3.30;1.80;;;;;;;;;;5047441;28;24455;-47
2022/09/17 12:13:47;;;;;;;2.97;1.80;;;;;;;;;;5054991;28;24418;-46
2022/09/17 12:16:16;;;;;;;3.25;1.98;;;;;;;;;;5054277;28;24449;-45
2022/09/17 12:18:45;;;;;;;3.70;2.10;;;;;;;;;;5030606;28;24440;-47
2022/09/17 12:21:13;;;;;;;2.38;1.95;;;;;;;;;;5044597;28;24778;-46
2022/09/17 12:23:47;;;;;;;2.92;1.90;;;;;;;;;;5033535;28;24471;-45
2022/09/17 12:26:22;;;;;;;3.90;2.10;;;;;;;;;;5041613;28;24445;-46
2022/09/17 12:28:52;;;;;;;2.65;1.92;;;;;;;;;;5040833;28;24459;-45
2022/09/17 12:31:22;;;;;;;2.80;1.60;;;;;;;;;;5029968;28;24434;-46
2022/09/17 12:33:54;;;;;;;2.65;1.65;;;;;;;;;;5037046;28;24782;-45
2022/09/17 12:36:25;;;;;;;3.20;1.60;;;;;;;;;;5035729;28;24435;-44
2022/09/17 12:39:02;;;;;;;3.60;1.80;;;;;;;;;;5039380;28;24515;-45
2022/09/17 12:41:45;;;;;;;3.40;1.90;;;;;;;;;;5042003;28;24984;-45
2022/09/17 12:44:18;;;;;;;2.97;1.60;;;;;;;;;;5029749;28;24526;-46
2022/09/17 12:47:02;;;;;;;2.42;1.40;;;;;;;;;;5032898;28;24510;-45
2022/09/17 12:49:38;;;;;;;3.08;1.73;;;;;;;;;;5039189;28;24411;-46
2022/09/17 12:52:09;;;;;;;3.67;1.60;;;;;;;;;;5031333;28;24561;-46
2022/09/17 12:54:34;;;;;;;4.45;2.00;;;;;;;;;;5031170;28;24961;-45
2022/09/17 12:57:02;;;;;;;2.33;1.42;;;;;;;;;;5029564;28;24453;-47
2022/09/17 12:59:30;;;;;;;2.60;1.70;;;;;;;;;;5031416;28;24988;-47
2022/09/17 13:02:11;;;;;;;2.43;1.70;;;;;;;;;;5033923;28;24439;-46
2022/09/17 13:04:54;;;;;;;2.67;1.60;;;;;;;;;;5029054;28;25148;-47
2022/09/17 13:07:38;;;;;;;3.25;1.75;;;;;;;;;;5035623;28;24457;-46
2022/09/17 13:10:17;;;;;;;3.63;1.58;;;;;;;;;;5031352;28;24438;-46
2022/09/17 13:12:51;;;;;;;3.17;1.70;;;;;;;;;;5034863;28;24530;-44
2022/09/17 13:15:35;;;;;;;3.17;1.92;;;;;;;;;;5042296;28;24428;-45
2022/09/17 13:18:12;;;;;;;4.05;1.90;;;;;;;;;;5033745;28;24423;-45
2022/09/17 13:20:47;;;;;;;2.30;1.60;;;;;;;;;;5053525;28;24777;-46
2022/09/17 13:23:12;;;;;;;3.10;1.40;;;;;;;;;;5060017;28;24442;-46
2022/09/17 13:25:51;;;;;;;2.90;1.90;;;;;;;;;;5038751;28;24423;-45
2022/09/17 13:28:17;;;;;;;5.13;1.80;;;;;;;;;;5041372;28;24472;-46
2022/09/17 13:30:58;;;;;;;5.25;1.90;;;;;;;;;;5059186;28;24469;-47
2022/09/17 13:33:42;;;;;;;4.90;2.25;;;;;;;;;;5040727;28;24423;-47
2022/09/17 13:36:27;;;;;;;2.92;1.40;;;;;;;;;;5053169;28;24928;-45
2022/09/17 13:38:52;;;;;;;4.00;1.60;;;;;;;;;;5033358;28;24809;-45
2022/09/17 13:41:20;;;;;;;2.85;1.70;;;;;;;;;;5049383;28;25049;-45
2022/09/17 13:43:45;;;;;;;2.28;1.40;;;;;;;;;;5054351;28;24403;-47
2022/09/17 13:46:13;;;;;;;2.60;1.30;;;;;;;;;;5056098;28;24897;-46
2022/09/17 13:48:43;;;;;;;2.75;1.20;;;;;;;;;;5040435;28;24446;-46
2022/09/17 13:51:27;;;;;;;1.80;1.20;;;;;;;;;;5035651;28;24459;-45
2022/09/17 13:53:53;;;;;;;2.17;1.20;;;;;;;;;;5035658;28;24416;-45
2022/09/17 13:56:30;;;;;;;1.95;1.15;;;;;;;;;;5049668;28;24710;-45
2022/09/17 13:59:03;;;;;;;1.60;1.17;;;;;;;;;;5040803;28;25047;-45
2022/09/17 14:01:47;;;;;;;1.92;1.10;;;;;;;;;;5041787;28;25006;-45
2022/09/17 14:04:30;;;;;;;1.95;1.25;;;;;;;;;;5059828;28;24408;-46
2022/09/17 14:06:58;;;;;;;2.00;1.15;;;;;;;;;;5037823;28;24432;-46
2022/09/17 14:09:34;;;;;;;2.60;1.20;;;;;;;;;;5032900;28;24960;-46
2022/09/17 14:11:59;;;;;;;4.22;1.40;;;;;;;;;;5035047;28;24435;-46
2022/09/17 14:14:27;;;;;;;1.67;1.10;;;;;;;;;;5040531;28;24486;-46
2022/09/17 14:16:52;;;;;;;4.75;1.80;;;;;;;;;;5038612;28;24447;-46
2022/09/17 14:19:21;;;;;;;4.20;1.60;;;;;;;;;;5044266;28;24500;-46
2022/09/17 14:22:00;;;;;;;4.68;2.00;;;;;;;;;;5029522;28;24431;-45
2022/09/17 14:24:28;;;;;;;3.58;1.77;;;;;;;;;;5039702;28;24427;-45
2022/09/17 14:27:05;;;;;;;2.53;1.48;;;;;;;;;;5045087;28;25000;-46
2022/09/17 14:29:54;;;;;;;3.13;1.52;;;;;;;;;;5048727;28;24410;-46
2022/09/17 14:32:31;;;;;;;3.38;1.67;;;;;;;;;;5033157;28;24522;-45
2022/09/17 14:35:01;;;;;;;2.55;1.63;;;;;;;;;;5047496;28;24984;-46
2022/09/17 14:37:27;;;;;;;3.17;1.60;;;;;;;;;;5042241;28;24965;-46
2022/09/17 14:39:52;;;;;;;2.97;1.60;;;;;;;;;;5037251;28;24438;-46
2022/09/17 14:42:28;;;;;;;3.17;1.50;;;;;;;;;;5047285;28;24420;-47
2022/09/17 14:44:56;;;;;;;3.47;1.85;;;;;;;;;;5045513;28;24437;-46
2022/09/17 14:47:22;;;;;;;3.60;1.67;;;;;;;;;;5033434;28;24538;-46
2022/09/17 14:49:49;;;;;;;3.07;1.70;;;;;;;;;;5035800;28;24424;-47
2022/09/17 14:52:29;;;;;;;2.63;1.40;;;;;;;;;;5044727;28;24415;-47
2022/09/17 14:55:09;;;;;;;2.63;1.77;;;;;;;;;;5031832;28;25026;-46
2022/09/17 14:57:34;;;;;;;3.60;1.98;;;;;;;;;;5031771;28;24507;-47